Terminal Aerodrome Forecast
Issued by NWS

Home | Current Version | Previous Version | Text Only | Print | Product List | Glossary Off
Versions: 1 2 3 4 5 6 7 8 9 10 11 12 13 14 15 16 17

000
FTUS43 KIWX 182327
TAFSBN
TAF
KSBN 182327Z 1900/1924 01004KT P6SM SCT100 BKN250
     FM190800 08004KT 5SM BR VCSH SCT015 OVC025
     FM191000 09004KT 2SM -SHRA BR OVC008
     FM191500 10004KT 5SM BR VCSH OVC015
     FM192000 14006KT P6SM BKN035=

USA.gov is the U.S. government's official web portal to all federal, state and local government web resources and services.